createdAt,value
2022-11-07T00:01:20.029Z,14.70
2022-11-07T00:03:47.113Z,16.23
2022-11-07T00:06:14.236Z,17.33
2022-11-07T00:08:41.149Z,15.38
2022-11-07T00:11:08.363Z,16.33
2022-11-07T00:13:35.332Z,17.42
2022-11-07T00:16:05.609Z,18.33
2022-11-07T00:18:33.372Z,17.63
2022-11-07T00:21:04.743Z,17.45
2022-11-07T00:23:31.664Z,19.20
2022-11-07T00:26:03.624Z,18.50
2022-11-07T00:28:34.191Z,17.42
2022-11-07T00:31:01.291Z,18.88
2022-11-07T00:33:28.298Z,17.77
2022-11-07T00:35:55.426Z,18.73
2022-11-07T00:38:22.388Z,19.83
2022-11-07T00:40:59.648Z,18.15
2022-11-07T00:43:27.121Z,20.50
2022-11-07T00:45:54.156Z,18.63
2022-11-07T00:48:21.702Z,18.55
2022-11-07T00:50:48.822Z,19.63
2022-11-07T00:53:16.107Z,19.90
2022-11-07T00:55:43.365Z,19.27
2022-11-07T00:58:13.964Z,17.73
2022-11-07T01:00:42.406Z,16.92
2022-11-07T01:03:28.082Z,16.85
2022-11-07T01:06:00.911Z,18.77
2022-11-07T01:08:28.340Z,20.27
2022-11-07T01:10:56.333Z,18.60
2022-11-07T01:13:24.720Z,18.95
2022-11-07T01:15:52.499Z,19.75
2022-11-07T01:18:19.716Z,18.25
2022-11-07T01:20:46.916Z,17.30
2022-11-07T01:23:14.240Z,17.00
2022-11-07T01:25:41.768Z,17.60
2022-11-07T01:28:10.172Z,18.98
2022-11-07T01:30:41.796Z,20.02
2022-11-07T01:33:09.392Z,19.63
2022-11-07T01:35:37.515Z,19.75
2022-11-07T01:38:04.536Z,18.80
2022-11-07T01:40:33.886Z,16.52
2022-11-07T01:43:00.920Z,19.02
2022-11-07T01:45:31.126Z,19.27
2022-11-07T01:48:02.474Z,17.60
2022-11-07T01:50:30.756Z,18.05
2022-11-07T01:52:58.002Z,18.67
2022-11-07T01:55:31.862Z,18.77
2022-11-07T01:58:05.873Z,18.70
2022-11-07T02:00:34.478Z,17.52
2022-11-07T02:03:09.442Z,19.48
2022-11-07T02:05:46.677Z,17.50
2022-11-07T02:08:15.315Z,17.60
2022-11-07T02:10:44.035Z,20.10
2022-11-07T02:13:15.567Z,18.23
2022-11-07T02:15:42.774Z,19.23
2022-11-07T02:18:09.740Z,18.23
2022-11-07T02:20:37.618Z,19.45
2022-11-07T02:23:09.213Z,18.40
2022-11-07T02:25:37.162Z,18.50
2022-11-07T02:28:08.405Z,19.70
2022-11-07T02:30:35.541Z,17.73
2022-11-07T02:33:03.111Z,16.77
2022-11-07T02:35:40.268Z,17.95
2022-11-07T02:40:39.252Z,16.67
2022-11-07T02:43:08.556Z,16.45
2022-11-07T02:45:39.550Z,16.50
2022-11-07T02:48:06.760Z,16.85
2022-11-07T02:50:33.876Z,16.58
2022-11-07T02:53:00.841Z,16.60
2022-11-07T02:55:27.947Z,17.15
2022-11-07T02:57:54.882Z,17.33
2022-11-07T03:00:21.909Z,16.38
2022-11-07T03:02:49.410Z,14.23
2022-11-07T03:05:18.739Z,16.75
2022-11-07T03:07:47.870Z,17.38
2022-11-07T03:10:16.371Z,18.20
2022-11-07T03:12:43.572Z,15.80
2022-11-07T03:15:11.932Z,14.45
2022-11-07T03:17:39.308Z,16.63
2022-11-07T03:20:07.211Z,15.20
2022-11-07T03:22:34.189Z,14.65
2022-11-07T03:25:01.396Z,16.33
2022-11-07T03:27:30.188Z,15.60
2022-11-07T03:29:57.250Z,13.07
2022-11-07T03:32:24.307Z,14.55
2022-11-07T03:34:51.176Z,16.02
2022-11-07T03:37:18.060Z,13.05
2022-11-07T03:39:45.000Z,13.23
2022-11-07T03:42:11.921Z,15.38
2022-11-07T03:44:38.815Z,13.50
2022-11-07T03:47:05.815Z,14.65
2022-11-07T03:49:32.736Z,13.63
2022-11-07T03:52:00.132Z,16.02
2022-11-07T03:54:27.300Z,14.75
2022-11-07T03:56:54.335Z,13.13
2022-11-07T03:59:21.356Z,13.38
2022-11-07T04:01:48.696Z,12.93
2022-11-07T04:04:15.833Z,15.60
2022-11-07T04:06:42.899Z,15.55
2022-11-07T04:09:09.849Z,13.30
2022-11-07T04:11:55.561Z,13.05
2022-11-07T04:14:40.940Z,12.85
2022-11-07T04:17:19.949Z,13.02
2022-11-07T04:19:49.127Z,13.27
2022-11-07T04:22:16.552Z,13.43
2022-11-07T04:24:46.109Z,13.88
2022-11-07T04:27:33.172Z,13.50
2022-11-07T04:30:19.204Z,12.23
2022-11-07T04:32:51.364Z,13.35
2022-11-07T04:35:20.197Z,14.18
2022-11-07T04:37:48.424Z,12.93
2022-11-07T04:40:16.685Z,16.02
2022-11-07T04:42:44.898Z,14.70
2022-11-07T04:45:13.489Z,13.43
2022-11-07T04:47:41.253Z,13.50
2022-11-07T04:50:11.506Z,13.77
2022-11-07T04:52:38.934Z,13.82
2022-11-07T04:55:08.166Z,13.27
2022-11-07T04:57:35.524Z,14.23
2022-11-07T05:00:04.800Z,12.70
2022-11-07T05:02:32.213Z,15.27
2022-11-07T05:04:59.268Z,15.05
2022-11-07T05:07:26.504Z,14.10
2022-11-07T05:09:54.847Z,14.65
2022-11-07T05:12:21.987Z,15.63
2022-11-07T05:14:49.194Z,15.15
2022-11-07T05:17:17.189Z,27.50
2022-11-07T05:19:44.370Z,17.05
2022-11-07T05:22:30.057Z,15.65
2022-11-07T05:24:57.181Z,17.02
2022-11-07T05:27:25.051Z,13.00
2022-11-07T05:29:52.178Z,15.23
2022-11-07T05:32:19.371Z,15.38
2022-11-07T05:34:46.403Z,12.90
2022-11-07T05:37:13.989Z,14.00
2022-11-07T05:39:40.997Z,14.02
2022-11-07T05:42:07.885Z,12.32
2022-11-07T05:44:35.091Z,13.48
2022-11-07T05:47:02.151Z,14.70
2022-11-07T05:49:29.186Z,13.63
2022-11-07T05:51:57.118Z,15.95
2022-11-07T05:54:24.791Z,13.63
2022-11-07T05:56:55.707Z,13.00
2022-11-07T05:59:22.674Z,13.70
2022-11-07T06:01:51.255Z,12.25
2022-11-07T06:04:18.641Z,12.32
2022-11-07T06:06:45.635Z,13.90
2022-11-07T06:09:12.603Z,13.05
2022-11-07T06:11:39.597Z,12.18
2022-11-07T06:14:06.594Z,10.63
2022-11-07T06:16:33.620Z,12.32
2022-11-07T06:19:00.669Z,10.95
2022-11-07T06:21:27.539Z,10.85
2022-11-07T06:23:54.447Z,12.43
2022-11-07T06:26:21.399Z,13.07
2022-11-07T06:28:48.325Z,11.90
2022-11-07T06:31:15.579Z,11.27
2022-11-07T06:33:42.644Z,11.38
2022-11-07T06:36:12.240Z,11.70
2022-11-07T06:38:40.383Z,13.27
2022-11-07T06:41:13.324Z,11.35
2022-11-07T06:43:41.042Z,12.10
2022-11-07T06:46:11.292Z,11.32
2022-11-07T06:48:38.838Z,10.13
2022-11-07T06:51:07.086Z,11.60
2022-11-07T06:53:34.342Z,10.13
2022-11-07T06:56:02.849Z,11.18
2022-11-07T06:58:30.085Z,11.50
2022-11-07T07:01:05.072Z,10.63
2022-11-07T07:03:32.266Z,11.27
2022-11-07T07:06:04.761Z,11.45
2022-11-07T07:08:32.341Z,10.52
2022-11-07T07:11:07.539Z,10.35
2022-11-07T07:13:34.633Z,10.43
2022-11-07T07:16:02.054Z,11.98
2022-11-07T07:18:29.268Z,10.05
2022-11-07T07:21:04.700Z,12.35
2022-11-07T07:23:33.305Z,12.13
2022-11-07T07:26:03.931Z,10.63
2022-11-07T07:28:31.148Z,11.75
2022-11-07T07:31:22.412Z,11.82
2022-11-07T07:33:49.666Z,11.88
2022-11-07T07:36:20.801Z,11.70
2022-11-07T07:38:49.241Z,13.02
2022-11-07T07:41:17.661Z,13.85
2022-11-07T07:43:44.959Z,9.85
2022-11-07T07:46:16.246Z,11.82
2022-11-07T07:48:43.437Z,9.95
2022-11-07T07:51:10.531Z,9.63
2022-11-07T07:53:37.514Z,11.27
2022-11-07T07:56:06.588Z,11.10
2022-11-07T07:58:34.081Z,11.15
2022-11-07T08:01:01.552Z,11.90
2022-11-07T08:03:32.068Z,11.75
2022-11-07T08:06:07.248Z,10.65
2022-11-07T08:08:38.108Z,11.80
2022-11-07T08:11:08.218Z,13.30
2022-11-07T08:13:36.242Z,10.90
2022-11-07T08:16:05.332Z,10.73
2022-11-07T08:18:32.562Z,11.55
2022-11-07T08:20:59.778Z,11.75
2022-11-07T08:23:26.810Z,11.73
2022-11-07T08:25:55.973Z,10.48
2022-11-07T08:28:25.977Z,11.00
2022-11-07T08:31:07.581Z,11.73
2022-11-07T08:33:35.711Z,11.40
2022-11-07T08:36:04.205Z,14.02
2022-11-07T08:38:33.027Z,12.27
2022-11-07T08:41:00.629Z,11.50
2022-11-07T08:43:28.035Z,12.88
2022-11-07T08:45:56.325Z,13.60
2022-11-07T08:48:24.166Z,14.90
2022-11-07T08:50:56.750Z,12.95
2022-11-07T08:53:25.748Z,12.27
2022-11-07T08:55:53.164Z,11.70
2022-11-07T08:58:20.463Z,13.10
2022-11-07T09:00:48.206Z,11.27
2022-11-07T09:03:43.706Z,13.88
2022-11-07T09:06:02.459Z,13.82
2022-11-07T09:08:29.420Z,12.43
2022-11-07T09:10:56.379Z,13.93
2022-11-07T09:13:23.387Z,13.80
2022-11-07T09:15:51.892Z,10.82
2022-11-07T09:18:20.053Z,10.95
2022-11-07T09:20:47.620Z,12.23
2022-11-07T09:23:14.963Z,12.52
2022-11-07T09:25:42.230Z,11.27
2022-11-07T09:28:09.399Z,13.10
2022-11-07T09:30:40.565Z,10.88
2022-11-07T09:33:08.390Z,12.65
2022-11-07T09:35:35.402Z,11.43
2022-11-07T09:38:02.446Z,10.65
2022-11-07T09:40:51.341Z,12.48
2022-11-07T09:43:33.751Z,11.20
2022-11-07T09:46:38.753Z,12.55
2022-11-07T09:49:23.585Z,12.27
2022-11-07T09:52:00.862Z,10.70
2022-11-07T09:54:33.148Z,12.50
2022-11-07T09:57:01.042Z,11.27
2022-11-07T09:59:44.006Z,12.82
2022-11-07T10:02:17.543Z,12.95
2022-11-07T10:04:46.763Z,12.30
2022-11-07T10:07:58.646Z,12.85
2022-11-07T10:10:48.755Z,12.65
2022-11-07T10:13:52.955Z,14.18
2022-11-07T10:16:58.274Z,12.32
2022-11-07T10:20:08.418Z,12.52
2022-11-07T10:22:43.102Z,12.55
2022-11-07T10:25:26.807Z,12.73
2022-11-07T10:28:14.078Z,13.15
2022-11-07T10:30:44.622Z,12.98
2022-11-07T10:33:48.877Z,12.90
2022-11-07T10:36:28.794Z,14.63
2022-11-07T10:38:56.370Z,13.98
2022-11-07T10:41:27.524Z,16.08
2022-11-07T10:44:04.891Z,16.27
2022-11-07T10:46:47.779Z,14.13
2022-11-07T10:49:21.832Z,14.13
2022-11-07T10:51:49.995Z,14.85
2022-11-07T10:54:25.930Z,14.27
2022-11-07T10:57:07.101Z,13.07
2022-11-07T10:59:37.117Z,13.88
2022-11-07T11:02:20.778Z,16.45
2022-11-07T11:04:56.890Z,12.70
2022-11-07T11:07:42.034Z,13.80
2022-11-07T11:10:37.742Z,15.80
2022-11-07T11:13:05.368Z,15.98
2022-11-07T11:15:35.823Z,14.85
2022-11-07T11:18:15.086Z,14.23
2022-11-07T11:20:58.359Z,14.63
2022-11-07T11:23:29.480Z,17.38
2022-11-07T11:26:02.780Z,13.73
2022-11-07T11:28:50.127Z,14.95
2022-11-07T11:31:29.459Z,16.10
2022-11-07T11:34:03.325Z,15.27
2022-11-07T11:36:39.019Z,18.25
2022-11-07T11:39:26.530Z,16.30
2022-11-07T11:41:59.144Z,17.30
2022-11-07T11:44:40.041Z,18.60
2022-11-07T11:47:21.472Z,18.75
2022-11-07T11:50:00.925Z,17.55
2022-11-07T11:52:31.892Z,17.00
2022-11-07T11:55:00.566Z,18.05
2022-11-07T11:57:37.783Z,16.67
2022-11-07T12:00:19.834Z,16.30
2022-11-07T12:02:52.364Z,17.88
2022-11-07T12:05:28.151Z,15.85
2022-11-07T12:08:17.603Z,16.98
2022-11-07T12:11:11.405Z,20.02
2022-11-07T12:14:04.780Z,19.30
2022-11-07T12:16:43.512Z,16.83
2022-11-07T12:19:16.204Z,18.77
2022-11-07T12:21:53.706Z,19.13
2022-11-07T12:24:32.704Z,18.45
2022-11-07T12:27:28.856Z,18.05
2022-11-07T12:29:59.030Z,19.35
2022-11-07T12:32:38.463Z,17.85
2022-11-07T12:35:30.517Z,15.65
2022-11-07T12:38:25.269Z,15.95
2022-11-07T12:41:01.284Z,17.00
2022-11-07T12:43:31.022Z,17.52
2022-11-07T12:46:10.839Z,16.38
2022-11-07T12:48:46.925Z,17.75
2022-11-07T12:51:55.089Z,18.35
2022-11-07T12:54:45.505Z,19.00
2022-11-07T12:57:24.914Z,15.35
2022-11-07T13:00:07.406Z,16.92
2022-11-07T13:02:44.627Z,15.98
2022-11-07T13:05:42.307Z,16.05
2022-11-07T13:08:49.667Z,15.52
2022-11-07T13:11:34.736Z,15.93
2022-11-07T13:14:01.922Z,15.27
2022-11-07T13:16:35.392Z,17.70
2022-11-07T13:19:25.381Z,14.30
2022-11-07T13:22:03.539Z,13.60
2022-11-07T13:24:31.705Z,17.45
2022-11-07T13:26:59.696Z,16.55
2022-11-07T13:29:36.191Z,15.60
2022-11-07T13:32:11.352Z,17.70
2022-11-07T13:35:00.689Z,20.10
2022-11-07T13:37:32.267Z,15.77
2022-11-07T13:40:17.012Z,17.15
2022-11-07T13:42:45.451Z,18.30
2022-11-07T13:45:32.626Z,18.20
2022-11-07T13:48:10.432Z,15.90
2022-11-07T13:50:41.450Z,17.48
2022-11-07T13:53:25.133Z,16.42
2022-11-07T13:56:37.469Z,15.00
2022-11-07T13:59:10.724Z,16.55
2022-11-07T14:01:45.432Z,18.23
2022-11-07T14:04:22.351Z,16.13
2022-11-07T14:06:50.604Z,21.83
2022-11-07T14:09:20.514Z,17.60
2022-11-07T14:11:51.372Z,15.07
2022-11-07T14:14:18.854Z,16.02
2022-11-07T14:16:46.769Z,16.48
2022-11-07T14:19:24.311Z,19.23
2022-11-07T14:21:52.479Z,19.08
2022-11-07T14:24:32.830Z,18.50
2022-11-07T14:27:13.008Z,19.38
2022-11-07T14:29:54.021Z,20.33
2022-11-07T14:32:22.113Z,25.73
2022-11-07T14:34:52.476Z,23.67
2022-11-07T14:37:22.418Z,24.55
2022-11-07T14:39:50.496Z,23.50
2022-11-07T14:42:25.510Z,25.92
2022-11-07T14:44:57.996Z,25.45
2022-11-07T14:47:32.537Z,22.70
2022-11-07T14:50:02.049Z,24.27
2022-11-07T14:52:41.780Z,21.85
2022-11-07T14:55:19.075Z,23.98
2022-11-07T14:57:47.058Z,24.45
2022-11-07T15:00:20.690Z,24.50
2022-11-07T15:02:50.639Z,18.95
2022-11-07T15:05:35.850Z,20.00
2022-11-07T15:08:02.809Z,18.63
2022-11-07T15:10:33.535Z,19.75
2022-11-07T15:13:03.312Z,19.00
2022-11-07T15:15:35.773Z,19.00
2022-11-07T15:18:07.053Z,18.45
2022-11-07T15:20:36.046Z,19.92
2022-11-07T15:23:07.015Z,18.67
2022-11-07T15:25:40.805Z,21.40
2022-11-07T15:28:25.117Z,20.90
2022-11-07T15:30:57.985Z,21.35
2022-11-07T15:33:26.446Z,23.38
2022-11-07T15:35:57.289Z,20.35
2022-11-07T15:38:27.134Z,21.45
2022-11-07T15:40:54.423Z,22.98
2022-11-07T15:43:22.009Z,22.65
2022-11-07T15:45:51.371Z,23.92
2022-11-07T15:48:22.618Z,21.33
2022-11-07T15:50:50.336Z,23.05
2022-11-07T15:53:23.267Z,22.50
2022-11-07T15:55:58.295Z,22.48
2022-11-07T15:58:27.586Z,23.58
2022-11-07T16:00:55.763Z,22.20
2022-11-07T16:03:25.509Z,22.60
2022-11-07T16:05:54.854Z,19.80
2022-11-07T16:08:24.305Z,20.77
2022-11-07T16:10:56.869Z,21.05
2022-11-07T16:13:24.270Z,18.90
2022-11-07T16:15:56.275Z,20.90
2022-11-07T16:18:23.416Z,20.20
2022-11-07T16:20:51.490Z,25.10
2022-11-07T16:23:19.047Z,22.90
2022-11-07T16:25:51.175Z,22.38
2022-11-07T16:28:25.637Z,20.88
2022-11-07T16:30:53.105Z,23.90
2022-11-07T16:33:20.567Z,23.60
2022-11-07T16:35:50.542Z,22.23
2022-11-07T16:38:19.744Z,21.15
2022-11-07T16:40:47.453Z,22.05
2022-11-07T16:43:14.703Z,23.30
2022-11-07T16:45:48.350Z,22.48
2022-11-07T16:48:28.457Z,25.60
2022-11-07T16:50:57.548Z,20.77
2022-11-07T16:53:25.950Z,21.90
2022-11-07T16:56:01.233Z,20.80
2022-11-07T16:58:29.874Z,20.98
2022-11-07T17:00:59.558Z,19.80
2022-11-07T17:03:27.095Z,21.63
2022-11-07T17:05:56.042Z,25.10
2022-11-07T17:08:41.316Z,24.80
2022-11-07T17:11:09.939Z,20.27
2022-11-07T17:13:37.603Z,20.25
2022-11-07T17:16:21.235Z,21.73
2022-11-07T17:18:49.437Z,19.73
2022-11-07T17:21:24.137Z,24.20
2022-11-07T17:23:52.438Z,22.55
2022-11-07T17:26:22.771Z,22.25
2022-11-07T17:28:50.981Z,21.88
2022-11-07T17:31:19.375Z,23.52
2022-11-07T17:33:46.718Z,23.13
2022-11-07T17:36:24.587Z,23.58
2022-11-07T17:38:53.170Z,21.33
2022-11-07T17:41:22.035Z,21.35
2022-11-07T17:43:50.594Z,22.80
2022-11-07T17:46:21.151Z,20.25
2022-11-07T17:48:48.757Z,23.33
2022-11-07T17:51:16.824Z,23.10
2022-11-07T17:53:45.302Z,26.05
2022-11-07T17:56:21.057Z,26.63
2022-11-07T17:58:49.280Z,25.63
2022-11-07T18:01:21.808Z,24.40
2022-11-07T18:03:50.127Z,23.05
2022-11-07T18:06:17.956Z,24.33
2022-11-07T18:08:52.042Z,26.70
2022-11-07T18:11:21.975Z,24.38
2022-11-07T18:13:53.949Z,26.05
2022-11-07T18:16:24.253Z,28.25
2022-11-07T18:18:51.826Z,26.33
2022-11-07T18:21:19.694Z,25.65
2022-11-07T18:23:46.896Z,25.40
2022-11-07T18:26:21.479Z,24.83
2022-11-07T18:28:52.199Z,26.40
2022-11-07T18:31:22.183Z,28.25
2022-11-07T18:33:52.749Z,21.30
2022-11-07T18:36:21.368Z,26.95
2022-11-07T18:38:48.725Z,24.90
2022-11-07T18:41:19.719Z,26.00
2022-11-07T18:43:46.953Z,27.42
2022-11-07T18:46:16.079Z,26.20
2022-11-07T18:48:43.497Z,25.50
2022-11-07T18:51:16.985Z,25.83
2022-11-07T18:53:44.568Z,28.00
2022-11-07T18:56:13.270Z,27.45
2022-11-07T18:58:43.799Z,24.90
2022-11-07T19:01:19.798Z,23.95
2022-11-07T19:03:47.296Z,24.98
2022-11-07T19:06:18.626Z,22.65
2022-11-07T19:08:48.517Z,23.58
2022-11-07T19:11:22.707Z,22.30
2022-11-07T19:13:50.069Z,22.75
2022-11-07T19:16:19.474Z,20.85
2022-11-07T19:18:49.589Z,22.30
2022-11-07T19:21:20.445Z,23.40
2022-11-07T19:23:48.838Z,22.67
2022-11-07T19:26:17.023Z,22.80
2022-11-07T19:28:44.083Z,23.30
2022-11-07T19:31:13.552Z,22.92
2022-11-07T19:33:41.869Z,23.88
2022-11-07T19:36:14.363Z,25.15
2022-11-07T19:38:41.503Z,21.48
2022-11-07T19:41:09.246Z,23.08
2022-11-07T19:43:36.913Z,23.30
2022-11-07T19:46:10.025Z,23.70
2022-11-07T19:48:38.286Z,24.60
2022-11-07T19:51:13.641Z,22.65
2022-11-07T19:53:45.300Z,23.95
2022-11-07T19:56:15.295Z,19.05
2022-11-07T19:58:42.877Z,20.00
2022-11-07T20:01:15.693Z,22.92
2022-11-07T20:03:45.041Z,25.42
2022-11-07T20:06:14.059Z,24.08
2022-11-07T20:08:43.424Z,19.70
2022-11-07T20:11:14.166Z,20.98
2022-11-07T20:13:41.429Z,23.58
2022-11-07T20:16:09.359Z,24.67
2022-11-07T20:18:37.411Z,22.38
2022-11-07T20:21:07.707Z,21.85
2022-11-07T20:23:34.837Z,20.98
2022-11-07T20:26:08.559Z,24.25
2022-11-07T20:28:36.469Z,24.25
2022-11-07T20:31:11.297Z,22.92
2022-11-07T20:33:38.662Z,74.95
2022-11-07T20:36:10.586Z,27.65
2022-11-07T20:38:37.752Z,24.30
2022-11-07T20:41:05.846Z,23.30
2022-11-07T20:43:34.580Z,23.02
2022-11-07T20:46:10.094Z,24.27
2022-11-07T20:48:38.316Z,23.65
2022-11-07T20:51:16.548Z,24.60
2022-11-07T20:53:49.776Z,24.63
2022-11-07T20:56:19.359Z,21.25
2022-11-07T20:58:47.416Z,21.85
2022-11-07T21:01:20.645Z,22.02
2022-11-07T21:03:48.400Z,21.95
2022-11-07T21:06:15.673Z,22.70
2022-11-07T21:08:48.723Z,25.25
2022-11-07T21:11:16.600Z,26.13
2022-11-07T21:13:49.686Z,21.85
2022-11-07T21:16:23.487Z,23.50
2022-11-07T21:18:52.326Z,26.02
2022-11-07T21:21:27.141Z,29.70
2022-11-07T21:23:56.769Z,23.17
2022-11-07T21:26:33.616Z,25.83
2022-11-07T21:29:02.206Z,22.27
2022-11-07T21:31:31.367Z,22.83
2022-11-07T21:33:58.858Z,25.80
2022-11-07T21:36:28.745Z,24.92
2022-11-07T21:38:57.630Z,23.75
2022-11-07T21:41:25.181Z,24.67
2022-11-07T21:43:52.655Z,26.70
2022-11-07T21:46:22.361Z,24.15
2022-11-07T21:48:50.312Z,24.02
2022-11-07T21:51:20.405Z,26.27
2022-11-07T21:53:48.213Z,22.83
2022-11-07T21:56:27.175Z,24.20
2022-11-07T21:58:57.666Z,23.33
2022-11-07T22:01:25.126Z,24.85
2022-11-07T22:04:12.118Z,22.20
2022-11-07T22:09:10.440Z,22.45
2022-11-07T22:11:37.800Z,23.67
2022-11-07T22:14:05.022Z,22.33
2022-11-07T22:16:32.268Z,22.92
2022-11-07T22:19:00.548Z,23.58
2022-11-07T22:21:28.020Z,21.13
2022-11-07T22:23:56.487Z,20.95
2022-11-07T22:26:25.575Z,23.38
2022-11-07T22:28:54.138Z,22.58
2022-11-07T22:31:27.187Z,27.45
2022-11-07T22:33:55.119Z,24.25
2022-11-07T22:36:22.402Z,24.30
2022-11-07T22:38:49.834Z,23.70
2022-11-07T22:41:19.189Z,24.88
2022-11-07T22:43:47.607Z,23.48
2022-11-07T22:46:18.042Z,24.30
2022-11-07T22:48:46.827Z,22.77
2022-11-07T22:51:20.052Z,24.08
2022-11-07T22:53:47.424Z,22.23
2022-11-07T22:56:17.313Z,19.67
2022-11-07T22:58:46.030Z,22.02
2022-11-07T23:01:19.775Z,23.27
2022-11-07T23:03:47.848Z,23.40
2022-11-07T23:06:16.008Z,23.92
2022-11-07T23:08:43.361Z,23.67
2022-11-07T23:14:10.278Z,22.38
2022-11-07T23:16:39.760Z,24.77
2022-11-07T23:19:09.359Z,24.15
2022-11-07T23:21:36.722Z,23.98
2022-11-07T23:24:04.452Z,18.83
2022-11-07T23:26:35.589Z,24.52
2022-11-07T23:29:10.742Z,22.85
2022-11-07T23:31:40.884Z,23.40
2022-11-07T23:34:08.556Z,22.92
2022-11-07T23:36:35.910Z,22.80
2022-11-07T23:39:05.419Z,21.50
2022-11-07T23:41:32.519Z,23.45
2022-11-07T23:44:00.042Z,26.33
2022-11-07T23:46:45.476Z,22.20
2022-11-07T23:49:31.208Z,22.42
2022-11-07T23:51:58.320Z,22.20
2022-11-07T23:54:44.022Z,26.30
2022-11-07T23:57:11.201Z,24.65
2022-11-07T23:59:56.753Z,23.95
